sensor_id;sensor_type;location;lat;lon;timestamp;temperature;humidity
36654;DHT22;22650;49.350;20.898;2022-10-31T00:02:09;9.80;99.90
36654;DHT22;22650;49.350;20.898;2022-10-31T00:04:43;9.60;99.90
36654;DHT22;22650;49.350;20.898;2022-10-31T00:07:16;9.60;99.90
36654;DHT22;22650;49.350;20.898;2022-10-31T00:09:50;9.60;99.90
36654;DHT22;22650;49.350;20.898;2022-10-31T00:12:23;9.60;99.90
36654;DHT22;22650;49.350;20.898;2022-10-31T00:14:58;9.60;99.90
36654;DHT22;22650;49.350;20.898;2022-10-31T00:17:34;9.60;99.90
36654;DHT22;22650;49.350;20.898;2022-10-31T00:20:08;9.60;99.90
36654;DHT22;22650;49.350;20.898;2022-10-31T00:22:42;9.70;99.90
36654;DHT22;22650;49.350;20.898;2022-10-31T00:25:15;9.60;99.90
36654;DHT22;22650;49.350;20.898;2022-10-31T00:27:49;9.60;99.90
36654;DHT22;22650;49.350;20.898;2022-10-31T00:30:24;9.60;99.90
36654;DHT22;22650;49.350;20.898;2022-10-31T00:32:57;9.60;99.90
36654;DHT22;22650;49.350;20.898;2022-10-31T00:35:31;9.60;99.90
36654;DHT22;22650;49.350;20.898;2022-10-31T00:38:05;9.60;99.90
36654;DHT22;22650;49.350;20.898;2022-10-31T00:40:38;9.60;99.90
36654;DHT22;22650;49.350;20.898;2022-10-31T00:43:12;9.60;99.90
36654;DHT22;22650;49.350;20.898;2022-10-31T00:45:46;9.60;99.90
36654;DHT22;22650;49.350;20.898;2022-10-31T00:48:20;9.60;99.90
36654;DHT22;22650;49.350;20.898;2022-10-31T00:50:53;9.60;99.90
36654;DHT22;22650;49.350;20.898;2022-10-31T00:53:27;9.50;99.90
36654;DHT22;22650;49.350;20.898;2022-10-31T00:56:01;9.50;99.90
36654;DHT22;22650;49.350;20.898;2022-10-31T00:58:34;9.50;99.90
36654;DHT22;22650;49.350;20.898;2022-10-31T01:01:09;9.50;99.90
36654;DHT22;22650;49.350;20.898;2022-10-31T01:03:43;9.40;99.90
36654;DHT22;22650;49.350;20.898;2022-10-31T01:06:17;9.50;99.90
36654;DHT22;22650;49.350;20.898;2022-10-31T01:08:50;9.40;99.90
36654;DHT22;22650;49.350;20.898;2022-10-31T01:11:24;9.50;99.90
36654;DHT22;22650;49.350;20.898;2022-10-31T01:13:57;9.40;99.90
36654;DHT22;22650;49.350;20.898;2022-10-31T01:16:32;9.40;99.90
36654;DHT22;22650;49.350;20.898;2022-10-31T01:19:06;9.40;99.90
36654;DHT22;22650;49.350;20.898;2022-10-31T01:21:39;9.40;99.90
36654;DHT22;22650;49.350;20.898;2022-10-31T01:24:12;9.40;99.90
36654;DHT22;22650;49.350;20.898;2022-10-31T01:26:46;9.40;99.90
36654;DHT22;22650;49.350;20.898;2022-10-31T01:29:20;9.30;99.90
36654;DHT22;22650;49.350;20.898;2022-10-31T01:31:55;9.30;99.90
36654;DHT22;22650;49.350;20.898;2022-10-31T01:34:28;9.30;99.90
36654;DHT22;22650;49.350;20.898;2022-10-31T01:37:02;9.30;99.90
36654;DHT22;22650;49.350;20.898;2022-10-31T01:39:36;9.30;99.90
36654;DHT22;22650;49.350;20.898;2022-10-31T01:42:16;9.30;99.90
36654;DHT22;22650;49.350;20.898;2022-10-31T01:44:54;9.30;99.90
36654;DHT22;22650;49.350;20.898;2022-10-31T01:47:37;9.30;99.90
36654;DHT22;22650;49.350;20.898;2022-10-31T01:50:15;9.20;99.90
36654;DHT22;22650;49.350;20.898;2022-10-31T01:52:54;9.20;99.90
36654;DHT22;22650;49.350;20.898;2022-10-31T01:55:30;9.20;99.90
36654;DHT22;22650;49.350;20.898;2022-10-31T01:58:08;9.20;99.90
36654;DHT22;22650;49.350;20.898;2022-10-31T02:00:46;9.20;99.90
36654;DHT22;22650;49.350;20.898;2022-10-31T02:03:22;9.20;99.90
36654;DHT22;22650;49.350;20.898;2022-10-31T02:05:57;9.20;99.90
36654;DHT22;22650;49.350;20.898;2022-10-31T02:08:33;9.20;99.90
36654;DHT22;22650;49.350;20.898;2022-10-31T02:11:08;9.20;99.90
36654;DHT22;22650;49.350;20.898;2022-10-31T02:13:42;9.20;99.90
36654;DHT22;22650;49.350;20.898;2022-10-31T02:16:15;9.10;99.90
36654;DHT22;22650;49.350;20.898;2022-10-31T02:18:50;9.10;99.90
36654;DHT22;22650;49.350;20.898;2022-10-31T02:21:29;9.10;99.90
36654;DHT22;22650;49.350;20.898;2022-10-31T02:27:28;9.10;99.90
36654;DHT22;22650;49.350;20.898;2022-10-31T02:30:08;9.10;99.90
36654;DHT22;22650;49.350;20.898;2022-10-31T02:33:04;9.10;99.90
36654;DHT22;22650;49.350;20.898;2022-10-31T02:35:50;9.10;99.90
36654;DHT22;22650;49.350;20.898;2022-10-31T02:38:38;9.10;99.90
36654;DHT22;22650;49.350;20.898;2022-10-31T02:41:20;9.10;99.90
36654;DHT22;22650;49.350;20.898;2022-10-31T02:44:02;9.10;99.90
36654;DHT22;22650;49.350;20.898;2022-10-31T02:46:43;9.10;99.90
36654;DHT22;22650;49.350;20.898;2022-10-31T02:49:26;9.10;99.90
36654;DHT22;22650;49.350;20.898;2022-10-31T02:52:00;9.10;99.90
36654;DHT22;22650;49.350;20.898;2022-10-31T02:54:33;9.10;99.90
36654;DHT22;22650;49.350;20.898;2022-10-31T02:57:08;9.10;99.90
36654;DHT22;22650;49.350;20.898;2022-10-31T02:59:46;9.10;99.90
36654;DHT22;22650;49.350;20.898;2022-10-31T03:02:37;9.00;99.90
36654;DHT22;22650;49.350;20.898;2022-10-31T03:05:23;9.00;99.90
36654;DHT22;22650;49.350;20.898;2022-10-31T03:08:06;9.00;99.90
36654;DHT22;22650;49.350;20.898;2022-10-31T03:10:48;9.00;99.90
36654;DHT22;22650;49.350;20.898;2022-10-31T03:13:32;9.00;99.90
36654;DHT22;22650;49.350;20.898;2022-10-31T03:16:11;9.00;99.90
36654;DHT22;22650;49.350;20.898;2022-10-31T03:18:52;9.00;99.90
36654;DHT22;22650;49.350;20.898;2022-10-31T03:21:30;9.00;99.90
36654;DHT22;22650;49.350;20.898;2022-10-31T03:24:07;9.00;99.90
36654;DHT22;22650;49.350;20.898;2022-10-31T03:26:43;8.90;99.90
36654;DHT22;22650;49.350;20.898;2022-10-31T03:29:20;8.90;99.90
36654;DHT22;22650;49.350;20.898;2022-10-31T03:31:58;8.90;99.90
36654;DHT22;22650;49.350;20.898;2022-10-31T03:34:33;8.90;99.90
36654;DHT22;22650;49.350;20.898;2022-10-31T03:37:13;8.90;99.90
36654;DHT22;22650;49.350;20.898;2022-10-31T03:39:48;9.00;99.90
36654;DHT22;22650;49.350;20.898;2022-10-31T03:42:28;9.00;99.90
36654;DHT22;22650;49.350;20.898;2022-10-31T03:45:06;9.00;99.90
36654;DHT22;22650;49.350;20.898;2022-10-31T03:47:42;8.90;99.90
36654;DHT22;22650;49.350;20.898;2022-10-31T03:50:17;8.90;99.90
36654;DHT22;22650;49.350;20.898;2022-10-31T03:52:55;8.90;99.90
36654;DHT22;22650;49.350;20.898;2022-10-31T03:55:36;8.90;99.90
36654;DHT22;22650;49.350;20.898;2022-10-31T03:58:17;8.80;99.90
36654;DHT22;22650;49.350;20.898;2022-10-31T04:00:55;8.80;99.90
36654;DHT22;22650;49.350;20.898;2022-10-31T04:03:31;8.80;99.90
36654;DHT22;22650;49.350;20.898;2022-10-31T04:06:09;8.80;99.90
36654;DHT22;22650;49.350;20.898;2022-10-31T04:08:48;8.80;99.90
36654;DHT22;22650;49.350;20.898;2022-10-31T04:11:26;8.80;99.90
36654;DHT22;22650;49.350;20.898;2022-10-31T04:14:31;8.80;99.90
36654;DHT22;22650;49.350;20.898;2022-10-31T04:17:09;8.80;99.90
36654;DHT22;22650;49.350;20.898;2022-10-31T04:19:46;8.70;99.90
36654;DHT22;22650;49.350;20.898;2022-10-31T04:22:20;8.70;99.90
36654;DHT22;22650;49.350;20.898;2022-10-31T04:24:55;8.60;99.90
36654;DHT22;22650;49.350;20.898;2022-10-31T04:27:28;8.70;99.90
36654;DHT22;22650;49.350;20.898;2022-10-31T04:30:02;8.70;99.90
36654;DHT22;22650;49.350;20.898;2022-10-31T04:32:38;8.70;99.90
36654;DHT22;22650;49.350;20.898;2022-10-31T04:35:12;8.70;99.90
36654;DHT22;22650;49.350;20.898;2022-10-31T04:37:45;8.70;99.90
36654;DHT22;22650;49.350;20.898;2022-10-31T04:40:20;8.60;99.90
36654;DHT22;22650;49.350;20.898;2022-10-31T04:43:12;8.70;99.90
36654;DHT22;22650;49.350;20.898;2022-10-31T04:45:48;8.70;99.90
36654;DHT22;22650;49.350;20.898;2022-10-31T04:48:23;8.70;99.90
36654;DHT22;22650;49.350;20.898;2022-10-31T04:50:59;8.60;99.90
36654;DHT22;22650;49.350;20.898;2022-10-31T04:53:32;8.60;99.90
36654;DHT22;22650;49.350;20.898;2022-10-31T04:56:29;8.60;99.90
36654;DHT22;22650;49.350;20.898;2022-10-31T04:59:06;8.60;99.90
36654;DHT22;22650;49.350;20.898;2022-10-31T05:01:50;8.60;99.90
36654;DHT22;22650;49.350;20.898;2022-10-31T05:04:32;8.60;99.90
36654;DHT22;22650;49.350;20.898;2022-10-31T05:07:06;8.60;99.90
36654;DHT22;22650;49.350;20.898;2022-10-31T05:09:40;8.60;99.90
36654;DHT22;22650;49.350;20.898;2022-10-31T05:12:15;8.60;99.90
36654;DHT22;22650;49.350;20.898;2022-10-31T05:15:07;8.60;99.90
36654;DHT22;22650;49.350;20.898;2022-10-31T05:18:00;8.60;99.90
36654;DHT22;22650;49.350;20.898;2022-10-31T05:20:57;8.50;99.90
36654;DHT22;22650;49.350;20.898;2022-10-31T05:23:41;8.50;99.90
36654;DHT22;22650;49.350;20.898;2022-10-31T05:26:20;8.50;99.90
36654;DHT22;22650;49.350;20.898;2022-10-31T05:28:55;8.50;99.90
36654;DHT22;22650;49.350;20.898;2022-10-31T05:31:28;8.50;99.90
36654;DHT22;22650;49.350;20.898;2022-10-31T05:34:02;8.50;99.90
36654;DHT22;22650;49.350;20.898;2022-10-31T05:37:05;8.50;99.90
36654;DHT22;22650;49.350;20.898;2022-10-31T05:39:39;8.50;99.90
36654;DHT22;22650;49.350;20.898;2022-10-31T05:42:18;8.50;99.90
36654;DHT22;22650;49.350;20.898;2022-10-31T05:44:53;8.60;99.90
36654;DHT22;22650;49.350;20.898;2022-10-31T05:47:35;8.60;99.90
36654;DHT22;22650;49.350;20.898;2022-10-31T05:50:31;8.60;99.90
36654;DHT22;22650;49.350;20.898;2022-10-31T05:53:13;8.50;99.90
36654;DHT22;22650;49.350;20.898;2022-10-31T05:55:46;8.50;99.90
36654;DHT22;22650;49.350;20.898;2022-10-31T05:58:23;8.50;99.90
36654;DHT22;22650;49.350;20.898;2022-10-31T06:01:10;8.50;99.90
36654;DHT22;22650;49.350;20.898;2022-10-31T06:03:44;8.40;99.90
36654;DHT22;22650;49.350;20.898;2022-10-31T06:06:20;8.40;99.90
36654;DHT22;22650;49.350;20.898;2022-10-31T06:08:54;8.40;99.90
36654;DHT22;22650;49.350;20.898;2022-10-31T06:11:27;8.30;99.90
36654;DHT22;22650;49.350;20.898;2022-10-31T06:14:06;8.30;99.90
36654;DHT22;22650;49.350;20.898;2022-10-31T06:17:01;8.30;99.90
36654;DHT22;22650;49.350;20.898;2022-10-31T06:19:52;8.30;99.90
36654;DHT22;22650;49.350;20.898;2022-10-31T06:22:27;8.30;99.90
36654;DHT22;22650;49.350;20.898;2022-10-31T06:25:00;8.30;99.90
36654;DHT22;22650;49.350;20.898;2022-10-31T06:27:38;8.30;99.90
36654;DHT22;22650;49.350;20.898;2022-10-31T06:30:17;8.30;99.90
36654;DHT22;22650;49.350;20.898;2022-10-31T06:32:52;8.30;99.90
36654;DHT22;22650;49.350;20.898;2022-10-31T06:35:25;8.40;99.90
36654;DHT22;22650;49.350;20.898;2022-10-31T06:37:59;8.30;99.90
36654;DHT22;22650;49.350;20.898;2022-10-31T06:40:40;8.30;99.90
36654;DHT22;22650;49.350;20.898;2022-10-31T06:43:22;8.30;99.90
36654;DHT22;22650;49.350;20.898;2022-10-31T06:46:10;8.30;99.90
36654;DHT22;22650;49.350;20.898;2022-10-31T06:48:51;8.40;99.90
36654;DHT22;22650;49.350;20.898;2022-10-31T06:51:36;8.30;99.90
36654;DHT22;22650;49.350;20.898;2022-10-31T06:54:09;8.40;99.90
36654;DHT22;22650;49.350;20.898;2022-10-31T06:56:45;8.40;99.90
36654;DHT22;22650;49.350;20.898;2022-10-31T06:59:18;8.40;99.90
36654;DHT22;22650;49.350;20.898;2022-10-31T07:02:10;8.40;99.90
36654;DHT22;22650;49.350;20.898;2022-10-31T07:04:48;8.40;99.90
36654;DHT22;22650;49.350;20.898;2022-10-31T07:07:22;8.40;99.90
36654;DHT22;22650;49.350;20.898;2022-10-31T07:09:56;8.40;99.90
36654;DHT22;22650;49.350;20.898;2022-10-31T07:13:06;8.40;99.90
36654;DHT22;22650;49.350;20.898;2022-10-31T07:15:42;8.40;99.90
36654;DHT22;22650;49.350;20.898;2022-10-31T07:18:15;8.40;99.90
36654;DHT22;22650;49.350;20.898;2022-10-31T07:20:51;8.50;99.90
36654;DHT22;22650;49.350;20.898;2022-10-31T07:23:25;8.50;99.90
36654;DHT22;22650;49.350;20.898;2022-10-31T07:26:20;8.50;99.90
36654;DHT22;22650;49.350;20.898;2022-10-31T07:28:53;8.50;99.90
36654;DHT22;22650;49.350;20.898;2022-10-31T07:31:29;8.60;99.90
36654;DHT22;22650;49.350;20.898;2022-10-31T07:34:08;8.60;99.90
36654;DHT22;22650;49.350;20.898;2022-10-31T07:37:01;8.70;99.90
36654;DHT22;22650;49.350;20.898;2022-10-31T07:39:34;8.70;99.90
36654;DHT22;22650;49.350;20.898;2022-10-31T07:42:08;8.80;99.90
36654;DHT22;22650;49.350;20.898;2022-10-31T07:44:47;8.80;99.90
36654;DHT22;22650;49.350;20.898;2022-10-31T07:47:44;8.80;99.90
36654;DHT22;22650;49.350;20.898;2022-10-31T07:50:54;8.80;99.90
36654;DHT22;22650;49.350;20.898;2022-10-31T07:53:47;9.00;99.90
36654;DHT22;22650;49.350;20.898;2022-10-31T07:56:28;9.00;99.90
36654;DHT22;22650;49.350;20.898;2022-10-31T07:59:01;9.10;99.90
36654;DHT22;22650;49.350;20.898;2022-10-31T08:01:35;9.10;99.90
36654;DHT22;22650;49.350;20.898;2022-10-31T08:04:28;9.10;99.90
36654;DHT22;22650;49.350;20.898;2022-10-31T08:07:20;9.20;99.90
36654;DHT22;22650;49.350;20.898;2022-10-31T08:10:02;9.30;99.90
36654;DHT22;22650;49.350;20.898;2022-10-31T08:12:36;9.40;99.90
36654;DHT22;22650;49.350;20.898;2022-10-31T08:15:12;9.50;99.90
36654;DHT22;22650;49.350;20.898;2022-10-31T08:17:45;9.60;99.90
36654;DHT22;22650;49.350;20.898;2022-10-31T08:20:19;9.60;99.90
36654;DHT22;22650;49.350;20.898;2022-10-31T08:22:54;9.60;99.90
36654;DHT22;22650;49.350;20.898;2022-10-31T08:25:30;9.70;99.90
36654;DHT22;22650;49.350;20.898;2022-10-31T08:28:10;9.80;99.90
36654;DHT22;22650;49.350;20.898;2022-10-31T08:30:46;9.70;99.90
36654;DHT22;22650;49.350;20.898;2022-10-31T08:33:52;9.80;99.90
36654;DHT22;22650;49.350;20.898;2022-10-31T08:36:44;9.80;99.90
36654;DHT22;22650;49.350;20.898;2022-10-31T08:39:29;9.80;99.90
36654;DHT22;22650;49.350;20.898;2022-10-31T08:42:05;9.90;99.90
36654;DHT22;22650;49.350;20.898;2022-10-31T08:44:38;10.00;99.90
36654;DHT22;22650;49.350;20.898;2022-10-31T08:47:12;10.10;99.90
36654;DHT22;22650;49.350;20.898;2022-10-31T08:49:45;10.30;99.90
36654;DHT22;22650;49.350;20.898;2022-10-31T08:52:21;10.50;99.90
36654;DHT22;22650;49.350;20.898;2022-10-31T08:55:15;10.70;99.90
36654;DHT22;22650;49.350;20.898;2022-10-31T08:58:10;11.00;99.90
36654;DHT22;22650;49.350;20.898;2022-10-31T09:00:51;11.10;99.90
36654;DHT22;22650;49.350;20.898;2022-10-31T09:03:27;11.30;99.90
36654;DHT22;22650;49.350;20.898;2022-10-31T09:06:02;11.60;99.90
36654;DHT22;22650;49.350;20.898;2022-10-31T09:08:41;11.90;99.90
36654;DHT22;22650;49.350;20.898;2022-10-31T09:11:15;12.10;99.90
36654;DHT22;22650;49.350;20.898;2022-10-31T09:14:10;12.30;99.90
36654;DHT22;22650;49.350;20.898;2022-10-31T09:16:43;12.60;99.90
36654;DHT22;22650;49.350;20.898;2022-10-31T09:19:26;12.80;99.90
36654;DHT22;22650;49.350;20.898;2022-10-31T09:21:59;13.00;99.90
36654;DHT22;22650;49.350;20.898;2022-10-31T09:24:33;13.20;99.90
36654;DHT22;22650;49.350;20.898;2022-10-31T09:27:07;13.40;99.90
36654;DHT22;22650;49.350;20.898;2022-10-31T09:29:46;13.50;99.90
36654;DHT22;22650;49.350;20.898;2022-10-31T09:32:21;13.70;99.90
36654;DHT22;22650;49.350;20.898;2022-10-31T09:34:54;13.80;99.90
36654;DHT22;22650;49.350;20.898;2022-10-31T09:37:28;14.00;99.90
36654;DHT22;22650;49.350;20.898;2022-10-31T09:40:02;14.10;99.90
36654;DHT22;22650;49.350;20.898;2022-10-31T09:42:54;14.20;99.90
36654;DHT22;22650;49.350;20.898;2022-10-31T09:45:37;14.20;99.90
36654;DHT22;22650;49.350;20.898;2022-10-31T09:48:35;14.30;99.90
36654;DHT22;22650;49.350;20.898;2022-10-31T09:51:10;14.50;99.90
36654;DHT22;22650;49.350;20.898;2022-10-31T09:54:19;14.60;99.90
36654;DHT22;22650;49.350;20.898;2022-10-31T09:56:56;14.70;99.90
36654;DHT22;22650;49.350;20.898;2022-10-31T09:59:33;14.90;99.90
36654;DHT22;22650;49.350;20.898;2022-10-31T10:02:16;15.00;99.90
36654;DHT22;22650;49.350;20.898;2022-10-31T10:04:55;15.30;99.90
36654;DHT22;22650;49.350;20.898;2022-10-31T10:07:38;15.50;99.90
36654;DHT22;22650;49.350;20.898;2022-10-31T10:10:20;15.60;99.90
36654;DHT22;22650;49.350;20.898;2022-10-31T10:16:25;16.10;99.90
36654;DHT22;22650;49.350;20.898;2022-10-31T10:19:20;16.30;99.90
36654;DHT22;22650;49.350;20.898;2022-10-31T10:22:00;16.40;99.90
36654;DHT22;22650;49.350;20.898;2022-10-31T10:24:50;16.40;99.90
36654;DHT22;22650;49.350;20.898;2022-10-31T10:27:31;16.40;99.90
36654;DHT22;22650;49.350;20.898;2022-10-31T10:30:13;16.50;99.90
36654;DHT22;22650;49.350;20.898;2022-10-31T10:32:49;16.60;99.90
36654;DHT22;22650;49.350;20.898;2022-10-31T10:35:27;16.60;99.90
36654;DHT22;22650;49.350;20.898;2022-10-31T10:38:08;16.70;99.90
36654;DHT22;22650;49.350;20.898;2022-10-31T10:40:43;16.70;99.90
36654;DHT22;22650;49.350;20.898;2022-10-31T10:43:21;16.80;99.90
36654;DHT22;22650;49.350;20.898;2022-10-31T10:46:11;16.90;99.90
36654;DHT22;22650;49.350;20.898;2022-10-31T10:49:13;16.90;99.90
36654;DHT22;22650;49.350;20.898;2022-10-31T10:51:52;17.00;99.90
36654;DHT22;22650;49.350;20.898;2022-10-31T10:54:59;17.20;99.90
36654;DHT22;22650;49.350;20.898;2022-10-31T10:57:54;17.30;99.90
36654;DHT22;22650;49.350;20.898;2022-10-31T11:00:32;17.50;99.90
36654;DHT22;22650;49.350;20.898;2022-10-31T11:03:08;17.70;99.90
36654;DHT22;22650;49.350;20.898;2022-10-31T11:05:46;17.80;99.90
36654;DHT22;22650;49.350;20.898;2022-10-31T11:08:25;18.00;99.90
36654;DHT22;22650;49.350;20.898;2022-10-31T11:11:00;18.20;99.90
36654;DHT22;22650;49.350;20.898;2022-10-31T11:13:35;18.30;99.90
36654;DHT22;22650;49.350;20.898;2022-10-31T11:16:11;18.40;99.90
36654;DHT22;22650;49.350;20.898;2022-10-31T11:18:46;18.50;99.90
36654;DHT22;22650;49.350;20.898;2022-10-31T11:21:21;18.60;99.90
36654;DHT22;22650;49.350;20.898;2022-10-31T11:24:03;18.90;99.90
36654;DHT22;22650;49.350;20.898;2022-10-31T11:26:37;19.10;99.90
36654;DHT22;22650;49.350;20.898;2022-10-31T11:29:14;19.20;99.90
36654;DHT22;22650;49.350;20.898;2022-10-31T11:31:51;19.30;99.90
36654;DHT22;22650;49.350;20.898;2022-10-31T11:34:30;19.40;99.90
36654;DHT22;22650;49.350;20.898;2022-10-31T11:37:18;19.50;99.90
36654;DHT22;22650;49.350;20.898;2022-10-31T11:39:54;19.50;99.90
36654;DHT22;22650;49.350;20.898;2022-10-31T11:42:35;19.70;99.90
36654;DHT22;22650;49.350;20.898;2022-10-31T11:45:15;19.80;99.90
36654;DHT22;22650;49.350;20.898;2022-10-31T11:47:51;20.00;99.90
36654;DHT22;22650;49.350;20.898;2022-10-31T11:50:34;20.10;99.90
36654;DHT22;22650;49.350;20.898;2022-10-31T11:53:14;20.20;99.90
36654;DHT22;22650;49.350;20.898;2022-10-31T11:56:01;20.40;99.90
36654;DHT22;22650;49.350;20.898;2022-10-31T11:58:36;20.60;99.90
36654;DHT22;22650;49.350;20.898;2022-10-31T12:01:24;20.60;99.90
36654;DHT22;22650;49.350;20.898;2022-10-31T12:04:05;20.70;99.90
36654;DHT22;22650;49.350;20.898;2022-10-31T12:06:40;20.70;99.90
36654;DHT22;22650;49.350;20.898;2022-10-31T12:09:20;20.80;99.90
36654;DHT22;22650;49.350;20.898;2022-10-31T12:12:10;20.80;99.90
36654;DHT22;22650;49.350;20.898;2022-10-31T12:14:54;20.70;99.90
36654;DHT22;22650;49.350;20.898;2022-10-31T12:17:36;20.70;99.90
36654;DHT22;22650;49.350;20.898;2022-10-31T12:20:19;20.80;99.90
36654;DHT22;22650;49.350;20.898;2022-10-31T12:23:01;20.90;99.90
36654;DHT22;22650;49.350;20.898;2022-10-31T12:25:41;20.90;99.90
36654;DHT22;22650;49.350;20.898;2022-10-31T12:28:37;20.90;99.90
36654;DHT22;22650;49.350;20.898;2022-10-31T12:31:29;20.90;99.90
36654;DHT22;22650;49.350;20.898;2022-10-31T12:34:33;20.80;99.90
36654;DHT22;22650;49.350;20.898;2022-10-31T12:37:22;20.90;99.90
36654;DHT22;22650;49.350;20.898;2022-10-31T12:40:09;20.80;99.90
36654;DHT22;22650;49.350;20.898;2022-10-31T12:43:00;20.80;99.90
36654;DHT22;22650;49.350;20.898;2022-10-31T12:45:47;20.80;99.90
36654;DHT22;22650;49.350;20.898;2022-10-31T12:48:44;20.80;99.90
36654;DHT22;22650;49.350;20.898;2022-10-31T12:51:33;20.80;99.90
36654;DHT22;22650;49.350;20.898;2022-10-31T12:54:23;21.00;99.90
36654;DHT22;22650;49.350;20.898;2022-10-31T12:57:10;21.10;99.90
36654;DHT22;22650;49.350;20.898;2022-10-31T12:59:49;21.00;99.90
36654;DHT22;22650;49.350;20.898;2022-10-31T13:02:29;21.20;99.90
36654;DHT22;22650;49.350;20.898;2022-10-31T13:05:06;21.30;99.90
36654;DHT22;22650;49.350;20.898;2022-10-31T13:07:47;21.40;99.90
36654;DHT22;22650;49.350;20.898;2022-10-31T13:10:25;21.50;99.90
36654;DHT22;22650;49.350;20.898;2022-10-31T13:13:05;21.60;99.90
36654;DHT22;22650;49.350;20.898;2022-10-31T13:15:48;21.50;99.90
36654;DHT22;22650;49.350;20.898;2022-10-31T13:18:28;21.30;99.90
36654;DHT22;22650;49.350;20.898;2022-10-31T13:21:08;21.10;99.90
36654;DHT22;22650;49.350;20.898;2022-10-31T13:23:43;21.00;99.90
36654;DHT22;22650;49.350;20.898;2022-10-31T13:26:37;21.00;99.90
36654;DHT22;22650;49.350;20.898;2022-10-31T13:29:17;20.70;99.90
36654;DHT22;22650;49.350;20.898;2022-10-31T13:31:51;20.60;99.90
36654;DHT22;22650;49.350;20.898;2022-10-31T13:34:35;20.60;99.90
36654;DHT22;22650;49.350;20.898;2022-10-31T13:37:16;20.40;99.90
36654;DHT22;22650;49.350;20.898;2022-10-31T13:40:04;20.30;99.90
36654;DHT22;22650;49.350;20.898;2022-10-31T13:42:49;20.20;99.90
36654;DHT22;22650;49.350;20.898;2022-10-31T13:45:25;20.00;99.90
36654;DHT22;22650;49.350;20.898;2022-10-31T13:48:00;19.80;99.90
36654;DHT22;22650;49.350;20.898;2022-10-31T13:50:35;19.70;99.90
36654;DHT22;22650;49.350;20.898;2022-10-31T13:53:18;19.30;99.90
36654;DHT22;22650;49.350;20.898;2022-10-31T13:56:03;18.90;99.90
36654;DHT22;22650;49.350;20.898;2022-10-31T13:58:38;18.50;99.90
36654;DHT22;22650;49.350;20.898;2022-10-31T14:01:18;18.10;99.90
36654;DHT22;22650;49.350;20.898;2022-10-31T14:03:58;17.80;99.90
36654;DHT22;22650;49.350;20.898;2022-10-31T14:06:54;17.60;99.90
36654;DHT22;22650;49.350;20.898;2022-10-31T14:09:31;17.10;99.90
36654;DHT22;22650;49.350;20.898;2022-10-31T14:12:08;17.00;99.90
36654;DHT22;22650;49.350;20.898;2022-10-31T14:14:46;16.80;99.90
36654;DHT22;22650;49.350;20.898;2022-10-31T14:17:23;16.70;99.90
36654;DHT22;22650;49.350;20.898;2022-10-31T14:20:19;16.60;99.90
36654;DHT22;22650;49.350;20.898;2022-10-31T14:22:55;16.40;99.90
36654;DHT22;22650;49.350;20.898;2022-10-31T14:25:35;16.20;99.90
36654;DHT22;22650;49.350;20.898;2022-10-31T14:28:20;15.90;99.90
36654;DHT22;22650;49.350;20.898;2022-10-31T14:30:56;15.70;99.90
36654;DHT22;22650;49.350;20.898;2022-10-31T14:33:31;15.40;99.90
36654;DHT22;22650;49.350;20.898;2022-10-31T14:36:11;15.30;99.90
36654;DHT22;22650;49.350;20.898;2022-10-31T14:38:57;15.10;99.90
36654;DHT22;22650;49.350;20.898;2022-10-31T14:41:47;14.90;99.90
36654;DHT22;22650;49.350;20.898;2022-10-31T14:47:31;14.50;99.90
36654;DHT22;22650;49.350;20.898;2022-10-31T14:50:24;14.30;99.90
36654;DHT22;22650;49.350;20.898;2022-10-31T14:53:04;14.10;99.90
36654;DHT22;22650;49.350;20.898;2022-10-31T14:55:43;13.90;99.90
36654;DHT22;22650;49.350;20.898;2022-10-31T14:58:20;13.70;99.90
36654;DHT22;22650;49.350;20.898;2022-10-31T15:00:56;13.50;99.90
36654;DHT22;22650;49.350;20.898;2022-10-31T15:03:32;13.40;99.90
36654;DHT22;22650;49.350;20.898;2022-10-31T15:06:11;13.30;99.90
36654;DHT22;22650;49.350;20.898;2022-10-31T15:08:46;13.20;99.90
36654;DHT22;22650;49.350;20.898;2022-10-31T15:11:23;13.00;99.90
36654;DHT22;22650;49.350;20.898;2022-10-31T15:13:58;12.90;99.90
36654;DHT22;22650;49.350;20.898;2022-10-31T15:16:34;12.80;99.90
36654;DHT22;22650;49.350;20.898;2022-10-31T15:19:12;12.70;99.90
36654;DHT22;22650;49.350;20.898;2022-10-31T15:21:50;12.60;99.90
36654;DHT22;22650;49.350;20.898;2022-10-31T15:24:27;12.50;99.90
36654;DHT22;22650;49.350;20.898;2022-10-31T15:27:04;12.40;99.90
36654;DHT22;22650;49.350;20.898;2022-10-31T15:29:47;12.30;99.90
36654;DHT22;22650;49.350;20.898;2022-10-31T15:32:23;12.30;99.90
36654;DHT22;22650;49.350;20.898;2022-10-31T15:34:57;12.20;99.90
36654;DHT22;22650;49.350;20.898;2022-10-31T15:37:31;12.20;99.90
36654;DHT22;22650;49.350;20.898;2022-10-31T15:40:12;12.10;99.90
36654;DHT22;22650;49.350;20.898;2022-10-31T15:42:51;12.10;99.90
36654;DHT22;22650;49.350;20.898;2022-10-31T15:45:27;12.00;99.90
36654;DHT22;22650;49.350;20.898;2022-10-31T15:48:03;12.00;99.90
36654;DHT22;22650;49.350;20.898;2022-10-31T15:50:47;12.00;99.90
36654;DHT22;22650;49.350;20.898;2022-10-31T15:53:24;12.00;99.90
36654;DHT22;22650;49.350;20.898;2022-10-31T15:56:00;12.00;99.90
36654;DHT22;22650;49.350;20.898;2022-10-31T15:58:41;11.90;99.90
36654;DHT22;22650;49.350;20.898;2022-10-31T16:01:21;11.90;99.90
36654;DHT22;22650;49.350;20.898;2022-10-31T16:04:00;11.80;99.90
36654;DHT22;22650;49.350;20.898;2022-10-31T16:06:34;11.80;99.90
36654;DHT22;22650;49.350;20.898;2022-10-31T16:09:21;11.80;99.90
36654;DHT22;22650;49.350;20.898;2022-10-31T16:11:56;11.80;99.90
36654;DHT22;22650;49.350;20.898;2022-10-31T16:14:33;11.70;99.90
36654;DHT22;22650;49.350;20.898;2022-10-31T16:17:12;11.80;99.90
36654;DHT22;22650;49.350;20.898;2022-10-31T16:19:52;11.70;99.90
36654;DHT22;22650;49.350;20.898;2022-10-31T16:22:28;11.70;99.90
36654;DHT22;22650;49.350;20.898;2022-10-31T16:25:05;11.70;99.90
36654;DHT22;22650;49.350;20.898;2022-10-31T16:27:48;11.70;99.90
36654;DHT22;22650;49.350;20.898;2022-10-31T16:30:35;11.70;99.90
36654;DHT22;22650;49.350;20.898;2022-10-31T16:33:24;11.70;99.90
36654;DHT22;22650;49.350;20.898;2022-10-31T16:35:58;11.70;99.90
36654;DHT22;22650;49.350;20.898;2022-10-31T16:38:53;11.70;99.90
36654;DHT22;22650;49.350;20.898;2022-10-31T16:41:26;11.70;99.90
36654;DHT22;22650;49.350;20.898;2022-10-31T16:44:01;11.70;99.90
36654;DHT22;22650;49.350;20.898;2022-10-31T16:46:36;11.70;99.90
36654;DHT22;22650;49.350;20.898;2022-10-31T16:49:10;11.70;99.90
36654;DHT22;22650;49.350;20.898;2022-10-31T16:51:43;11.70;99.90